Arak, Iran
Current Conditions -  °F | °C
As of 11:00 AM on Monday 22 Dec 2014 (Local Time) from OICC Reporting Station
Few Clouds Few Clouds  
Wind Chill: 40°   Ceiling: Unl
Heat Index: 43°   Visibility: 6mi
Dew Point: 36°   Wind: 5mph
Humidity: 76%   Direction: 210°SSW
Pressure: 30.09"   Gusts: NA
Location:  34.1°N, 49.4°E
Report Text: OICC 220800Z 21004KT 9999 FEW040 06/02 Q1019 A3012 NOSIG
Loading
Personal Weather Stations






























Interactive Weather Map New forecast layout! Learn more

10-Day Weather Forecast

Advertisements
Track Severe Weather on mobile